Aviation Digital Data Service (ADDS)

Output produced by TAFs form (0454 UTC 30 March 2017)
found at http://www.aviationweather.gov/adds/tafs/
 
METAR text: ZSOF 300400Z 10004MPS 2500 -RA BR NSC 13/10 Q1018 NOSIG
Conditions at: ZSOF (HEFEI/XINGIAO , CN) observed 0400 UTC 30 March 2017
Temperature: 13.0°C (55°F)
Dewpoint: 10.0°C (50°F) [RH = 82%]
Pressure (altimeter): 30.06 inches Hg (1018.0 mb)
Winds: from the E (100 degrees) at 9 MPH (8 knots; 4.2 m/s)
Visibility: 1.55 miles (2.49 km)
Ceiling: at least 12,000 feet AGL
Clouds: sky clear below 12,000 feet AGL
Weather: -RA BR  (light rain, mist)

Forecast for: ZSOF (HEFEI/XINGIAO , CN)
Text: TAF ZSOF 300301Z 3006/3106 09005MPS 2700 -RA BR SCT030 TX15/3006Z TN07/3022Z
Forecast period: 0600 to 0800 UTC 30 March 2017
Forecast type: FROM: standard forecast or significant change
Winds: from the E (90 degrees) at 12 MPH (10 knots; 5.2 m/s)
Visibility: 1.68 miles (2.70 km)
Clouds: scattered clouds at 3000 feet AGL
Weather: -RA BR  (light rain, mist)
Text: BECMG 3008/3009 3000 BR
Forecast period: 0800 UTC 30 March 2017 to 0600 UTC 31 March 2017
Forecast type: BECOMING: Conditions expected to become as follows by 0900 UTC 30 March 2017
Winds: from the E (90 degrees) at 12 MPH (10 knots; 5.2 m/s)
Visibility: 1.86 miles (2.99 km)
Clouds: scattered clouds at 3000 feet AGL
Weather: BR  (mist)